Time;durP1;ratioP1;P1;durP2;ratioP2;P2;SDS_P1;SDS_P2;PMS_P1;PMS_P2;Temp;Humidity;BMP_temperature;BMP_pressure;BME280_temperature;BME280_humidity;BME280_pressure;Samples;Min_cycle;Max_cycle;Signal;HPM_P1;HPM_P2
2023/12/11 00:00:31;;;;;;;50.20;7.05;;;9.70;99.90;;;;;;4994174;28;20576;-75
2023/12/11 00:02:58;;;;;;;48.28;8.07;;;9.70;99.90;;;;;;4998666;28;20089;-75
2023/12/11 00:05:24;;;;;;;50.88;8.90;;;9.70;99.90;;;;;;5022176;28;20410;-75
2023/12/11 00:07:52;;;;;;;47.40;8.43;;;9.70;99.90;;;;;;5020478;28;20046;-75
2023/12/11 00:10:18;;;;;;;41.47;7.07;;;9.70;99.90;;;;;;5006210;28;20057;-75
2023/12/11 00:12:44;;;;;;;42.70;7.35;;;9.70;99.90;;;;;;5020785;28;20034;-75
2023/12/11 00:15:10;;;;;;;52.78;9.02;;;9.70;99.90;;;;;;5026096;28;20071;-75
2023/12/11 00:17:36;;;;;;;50.10;8.98;;;9.80;99.90;;;;;;4998813;28;20068;-75
2023/12/11 00:20:02;;;;;;;51.97;9.07;;;9.80;99.90;;;;;;5008369;28;20077;-75
2023/12/11 00:22:31;;;;;;;47.67;8.90;;;9.80;99.90;;;;;;5004473;28;20124;-75
2023/12/11 00:25:00;;;;;;;46.25;7.85;;;9.80;99.90;;;;;;5020760;28;20049;-75
2023/12/11 00:27:25;;;;;;;45.50;8.15;;;9.70;99.90;;;;;;5019772;28;20153;-75
2023/12/11 00:29:51;;;;;;;41.00;8.43;;;9.80;99.90;;;;;;5018276;28;20526;-75
2023/12/11 00:32:17;;;;;;;52.30;8.65;;;9.80;99.90;;;;;;4992659;28;20092;-75
2023/12/11 00:34:43;;;;;;;44.97;9.50;;;9.80;99.90;;;;;;5000604;28;20041;-75
2023/12/11 00:37:08;;;;;;;49.50;9.90;;;9.80;99.90;;;;;;4992784;28;20043;-75
2023/12/11 00:39:35;;;;;;;47.58;7.70;;;9.80;99.90;;;;;;5010791;28;20542;-75
2023/12/11 00:42:01;;;;;;;44.97;7.95;;;9.80;99.90;;;;;;5010953;28;20539;-75
2023/12/11 00:44:26;;;;;;;58.55;8.52;;;9.80;99.90;;;;;;5003075;28;20065;-75
2023/12/11 00:46:52;;;;;;;43.78;8.65;;;9.90;99.90;;;;;;4994310;28;20045;-75
2023/12/11 00:49:18;;;;;;;44.35;7.18;;;9.80;99.90;;;;;;5002662;28;20077;-75
2023/12/11 00:51:44;;;;;;;39.75;6.47;;;9.80;99.90;;;;;;4986514;28;20095;-75
2023/12/11 00:54:09;;;;;;;45.45;7.95;;;9.90;99.90;;;;;;4989923;28;20034;-75
2023/12/11 00:56:35;;;;;;;49.17;7.40;;;9.90;99.90;;;;;;5014408;28;20140;-75
2023/12/11 00:59:01;;;;;;;52.03;8.95;;;9.90;99.90;;;;;;5013760;28;20049;-75
2023/12/11 01:01:26;;;;;;;40.42;7.28;;;9.90;99.90;;;;;;5018657;28;20510;-75
2023/12/11 01:03:52;;;;;;;39.90;7.63;;;10.00;99.90;;;;;;4972157;28;20112;-75
2023/12/11 01:06:18;;;;;;;38.33;7.18;;;9.90;99.90;;;;;;5001169;28;20045;-75
2023/12/11 01:08:44;;;;;;;48.97;8.63;;;9.90;99.90;;;;;;5021361;28;20390;-74
2023/12/11 01:11:10;;;;;;;43.25;8.80;;;9.90;99.90;;;;;;4993632;28;20129;-75
2023/12/11 01:13:36;;;;;;;36.92;7.53;;;9.90;99.90;;;;;;5001546;28;20441;-74
2023/12/11 01:16:02;;;;;;;43.58;7.28;;;9.90;99.90;;;;;;5001322;28;20073;-75
2023/12/11 01:18:31;;;;;;;46.83;8.05;;;9.90;99.90;;;;;;5002313;28;20149;-75
2023/12/11 01:20:57;;;;;;;41.72;6.75;;;9.90;99.90;;;;;;5001731;23;20056;-55
2023/12/11 01:23:22;;;;;;;47.15;7.65;;;9.80;99.90;;;;;;5002424;28;20049;-53
2023/12/11 01:25:48;;;;;;;42.22;8.75;;;9.80;99.90;;;;;;4986205;28;20063;-58
2023/12/11 01:28:16;;;;;;;45.45;7.45;;;9.80;99.90;;;;;;4985106;28;20068;-56
2023/12/11 01:30:42;;;;;;;44.40;6.47;;;9.80;99.90;;;;;;5001049;28;20509;-55
2023/12/11 01:33:08;;;;;;;39.22;6.97;;;9.80;99.90;;;;;;5003132;28;20131;-58
2023/12/11 01:35:34;;;;;;;37.97;6.95;;;9.80;99.90;;;;;;5002468;28;20667;-58
2023/12/11 01:38:03;;;;;;;42.10;7.00;;;9.80;99.90;;;;;;4997344;28;20077;-57
2023/12/11 01:40:29;;;;;;;42.70;7.18;;;9.90;99.90;;;;;;4999132;28;20127;-57
2023/12/11 01:42:55;;;;;;;34.97;6.03;;;9.80;99.90;;;;;;4997930;28;20042;-55
2023/12/11 01:45:20;;;;;;;39.35;7.53;;;9.80;99.90;;;;;;5000398;28;20046;-55
2023/12/11 01:47:49;;;;;;;43.60;6.63;;;9.80;99.90;;;;;;4966542;28;20060;-52
2023/12/11 01:50:15;;;;;;;40.90;6.25;;;9.80;99.90;;;;;;4985484;28;20061;-54
2023/12/11 01:52:41;;;;;;;44.15;7.35;;;9.90;99.90;;;;;;4987274;28;20092;-56
2023/12/11 01:55:07;;;;;;;45.03;6.90;;;9.80;99.90;;;;;;4998433;28;20041;-54
2023/12/11 01:57:34;;;;;;;47.63;7.15;;;9.80;99.90;;;;;;5001814;28;20030;-56
2023/12/11 02:00:05;;;;;;;37.83;6.57;;;9.80;99.90;;;;;;4985570;28;20202;-57
2023/12/11 02:02:35;;;;;;;46.13;7.72;;;9.80;99.90;;;;;;5003762;28;20607;-56
2023/12/11 02:05:01;;;;;;;45.13;6.97;;;9.80;99.90;;;;;;5004851;28;20058;-54
2023/12/11 02:07:27;;;;;;;47.03;7.80;;;9.80;99.90;;;;;;5002783;28;20652;-57
2023/12/11 02:09:53;;;;;;;44.53;7.63;;;9.80;99.90;;;;;;4985192;28;20046;-57
2023/12/11 02:12:18;;;;;;;48.47;7.47;;;9.70;99.90;;;;;;5002643;28;20602;-56
2023/12/11 02:14:44;;;;;;;40.63;6.78;;;9.80;99.90;;;;;;5001106;28;20412;-55
2023/12/11 02:17:10;;;;;;;42.03;6.88;;;9.70;99.90;;;;;;4986812;28;20049;-57
2023/12/11 02:19:36;;;;;;;47.00;7.20;;;9.70;99.90;;;;;;5002688;28;20057;-57
2023/12/11 02:22:02;;;;;;;41.03;6.72;;;9.70;99.90;;;;;;4986538;28;20057;-53
2023/12/11 02:25:05;;;;;;;47.10;7.88;;;9.70;99.90;;;;;;4999871;28;20030;-55
2023/12/11 02:27:31;;;;;;;49.90;8.85;;;9.70;99.90;;;;;;4979218;28;20107;-56
2023/12/11 02:29:57;;;;;;;44.03;6.93;;;9.70;99.90;;;;;;4996546;28;20374;-57
2023/12/11 02:32:23;;;;;;;43.28;8.70;;;9.60;99.90;;;;;;5002015;28;20049;-56
2023/12/11 02:34:49;;;;;;;48.25;9.20;;;9.60;99.90;;;;;;5001131;28;20034;-55
2023/12/11 02:37:15;;;;;;;46.63;7.25;;;9.60;99.90;;;;;;4999585;28;20126;-57
2023/12/11 02:39:40;;;;;;;43.42;8.45;;;9.60;99.90;;;;;;4999014;28;20057;-55
2023/12/11 02:42:06;;;;;;;45.80;9.13;;;9.60;99.90;;;;;;4983391;28;20042;-56
2023/12/11 02:44:32;;;;;;;41.08;7.75;;;9.50;99.90;;;;;;4981111;28;20037;-57
2023/12/11 02:46:58;;;;;;;38.72;7.13;;;9.60;99.90;;;;;;4999603;28;20092;-56
2023/12/11 02:49:23;;;;;;;52.33;7.65;;;9.60;99.90;;;;;;4999468;28;20534;-57
2023/12/11 02:51:49;;;;;;;40.90;7.80;;;9.60;99.90;;;;;;4967846;28;20052;-57
2023/12/11 02:54:18;;;;;;;56.95;9.43;;;9.50;99.90;;;;;;5000676;28;20046;-56
2023/12/11 02:56:44;;;;;;;43.20;7.00;;;9.50;99.90;;;;;;5001306;28;20038;-57
2023/12/11 02:59:09;;;;;;;36.03;6.60;;;9.50;99.90;;;;;;4982356;28;20053;-58
2023/12/11 03:01:39;;;;;;;45.88;8.35;;;9.50;99.90;;;;;;4985517;28;20057;-58
2023/12/11 03:04:07;;;;;;;44.90;8.18;;;9.50;99.90;;;;;;5001349;28;20569;-57
2023/12/11 03:06:33;;;;;;;48.03;8.93;;;9.50;99.90;;;;;;5001321;28;20195;-55
2023/12/11 03:09:02;;;;;;;48.55;8.20;;;9.50;99.90;;;;;;5000162;28;20433;-57
2023/12/11 03:11:31;;;;;;;54.60;10.93;;;9.50;99.90;;;;;;5002952;28;20053;-55
2023/12/11 03:13:56;;;;;;;43.33;9.10;;;9.50;99.90;;;;;;4984923;28;20084;-54
2023/12/11 03:16:22;;;;;;;63.63;7.90;;;9.50;99.90;;;;;;5004696;28;20065;-56
2023/12/11 03:18:48;;;;;;;48.55;7.65;;;9.50;99.90;;;;;;4981286;28;20034;-57
2023/12/11 03:21:14;;;;;;;45.28;7.85;;;9.50;99.90;;;;;;4979174;28;20581;-57
2023/12/11 03:23:39;;;;;;;44.90;8.00;;;9.50;99.90;;;;;;4994805;28;20033;-57
2023/12/11 03:26:05;;;;;;;46.97;8.57;;;9.60;99.90;;;;;;4997027;28;20038;-57
2023/12/11 03:28:31;;;;;;;45.67;8.15;;;9.60;99.90;;;;;;4999969;28;20054;-57
2023/12/11 03:30:57;;;;;;;47.40;7.85;;;9.60;99.90;;;;;;4981119;28;20093;-56
2023/12/11 03:33:22;;;;;;;54.00;8.45;;;9.60;99.90;;;;;;4987175;28;20038;-58
2023/12/11 03:35:48;;;;;;;48.47;9.05;;;9.60;99.90;;;;;;5006899;28;20042;-56
2023/12/11 03:38:14;;;;;;;45.83;8.27;;;9.60;99.90;;;;;;5000974;28;20054;-57
2023/12/11 03:40:39;;;;;;;42.70;8.65;;;9.60;99.90;;;;;;4984689;28;20041;-57
2023/12/11 03:43:05;;;;;;;50.75;7.85;;;9.60;99.90;;;;;;4984464;28;20042;-57
2023/12/11 03:45:31;;;;;;;51.25;9.63;;;9.60;99.90;;;;;;5000004;28;20065;-56
2023/12/11 03:47:57;;;;;;;54.95;8.73;;;9.60;99.90;;;;;;5004592;28;20038;-57
2023/12/11 03:50:22;;;;;;;48.90;7.80;;;9.60;99.90;;;;;;5003780;28;20542;-58
2023/12/11 03:52:48;;;;;;;51.58;8.93;;;9.60;99.90;;;;;;5003129;28;20029;-58
2023/12/11 03:55:14;;;;;;;50.08;7.30;;;9.60;99.90;;;;;;4988139;28;20524;-57
2023/12/11 03:57:40;;;;;;;46.92;9.13;;;9.60;99.90;;;;;;5006886;28;20128;-57
2023/12/11 04:00:06;;;;;;;52.22;7.82;;;9.60;99.90;;;;;;4970008;28;20070;-57
2023/12/11 04:02:32;;;;;;;51.42;8.20;;;9.60;99.90;;;;;;4981672;28;20041;-57
2023/12/11 04:04:58;;;;;;;51.17;9.45;;;9.60;99.90;;;;;;5005479;28;20108;-58
2023/12/11 04:07:23;;;;;;;51.03;9.50;;;9.60;99.90;;;;;;4986642;28;20037;-57
2023/12/11 04:09:49;;;;;;;41.22;7.65;;;9.60;99.90;;;;;;5002256;28;20044;-57
2023/12/11 04:12:15;;;;;;;58.30;9.05;;;9.60;99.90;;;;;;5003911;28;20044;-56
2023/12/11 04:14:40;;;;;;;55.33;7.88;;;9.60;99.90;;;;;;5000484;28;20069;-57
2023/12/11 04:17:06;;;;;;;45.70;7.75;;;9.60;99.90;;;;;;5004958;28;20103;-57
2023/12/11 04:19:32;;;;;;;50.40;9.43;;;9.60;99.90;;;;;;5000235;28;20052;-58
2023/12/11 04:21:58;;;;;;;45.50;7.53;;;9.60;99.90;;;;;;4995492;28;20040;-57
2023/12/11 04:24:24;;;;;;;44.70;8.75;;;9.70;99.90;;;;;;5004469;28;20041;-57
2023/12/11 04:26:50;;;;;;;46.25;7.70;;;9.60;99.90;;;;;;4990693;28;20034;-57
2023/12/11 04:29:15;;;;;;;50.47;8.88;;;9.70;99.90;;;;;;5000943;28;20096;-57
2023/12/11 04:31:41;;;;;;;44.22;7.55;;;9.70;99.90;;;;;;5002762;28;20046;-58
2023/12/11 04:34:07;;;;;;;48.85;8.65;;;9.70;99.90;;;;;;5002096;28;20398;-57
2023/12/11 04:36:33;;;;;;;61.67;9.95;;;9.70;99.90;;;;;;4981843;28;20049;-58
2023/12/11 04:38:58;;;;;;;44.15;8.15;;;9.70;99.90;;;;;;5000283;28;20049;-58
2023/12/11 04:41:24;;;;;;;44.25;7.95;;;9.80;99.90;;;;;;4984088;28;20050;-57
2023/12/11 04:43:50;;;;;;;50.55;7.72;;;9.80;99.90;;;;;;5001670;28;20053;-57
2023/12/11 04:46:16;;;;;;;46.20;9.30;;;9.80;99.90;;;;;;5000217;28;20479;-56
2023/12/11 04:48:41;;;;;;;52.72;9.68;;;9.80;99.90;;;;;;4986021;28;20487;-55
2023/12/11 04:51:08;;;;;;;44.97;8.43;;;9.80;99.90;;;;;;5003545;28;20043;-55
2023/12/11 04:53:34;;;;;;;46.55;10.00;;;9.80;99.90;;;;;;4999310;28;20042;-56
2023/12/11 04:56:05;;;;;;;52.03;8.02;;;9.80;99.90;;;;;;4986516;28;20566;-56
2023/12/11 04:58:31;;;;;;;42.00;7.22;;;9.80;99.90;;;;;;5004540;28;20046;-57
2023/12/11 05:00:57;;;;;;;43.00;7.15;;;9.90;99.90;;;;;;5004991;28;20052;-57
2023/12/11 05:03:22;;;;;;;42.83;6.55;;;9.90;99.90;;;;;;4998990;28;20064;-57
2023/12/11 05:05:48;;;;;;;40.55;7.22;;;9.90;99.90;;;;;;4999909;28;20041;-57
2023/12/11 05:08:14;;;;;;;50.00;7.75;;;9.90;99.90;;;;;;4989293;28;20477;-57
2023/12/11 05:10:40;;;;;;;39.15;8.48;;;9.90;99.90;;;;;;4988539;28;20038;-56
2023/12/11 05:13:05;;;;;;;51.20;7.05;;;9.90;99.90;;;;;;4997953;28;20693;-55
2023/12/11 05:15:31;;;;;;;45.90;8.25;;;9.90;99.90;;;;;;4971642;28;20045;-56
2023/12/11 05:17:57;;;;;;;43.15;6.43;;;9.90;99.90;;;;;;5002305;28;20037;-56
2023/12/11 05:20:23;;;;;;;45.83;7.07;;;10.00;99.90;;;;;;4984195;28;20053;-54
2023/12/11 05:22:48;;;;;;;40.33;6.70;;;9.90;99.90;;;;;;5001723;28;20096;-55
2023/12/11 05:25:14;;;;;;;38.13;6.57;;;9.90;99.90;;;;;;4999479;28;20088;-55
2023/12/11 05:27:40;;;;;;;44.60;6.18;;;10.00;99.90;;;;;;5001544;28;20040;-56
2023/12/11 05:30:07;;;;;;;41.90;6.50;;;10.00;99.90;;;;;;4984956;28;20045;-55
2023/12/11 05:32:32;;;;;;;34.95;6.72;;;10.00;99.90;;;;;;4996265;28;20104;-57
2023/12/11 05:34:58;;;;;;;39.20;6.25;;;10.00;99.90;;;;;;4987408;28;20033;-56
2023/12/11 05:37:24;;;;;;;31.85;5.97;;;10.00;99.90;;;;;;4986984;28;20100;-54
2023/12/11 05:39:50;;;;;;;34.72;6.03;;;10.00;99.90;;;;;;4986066;28;20049;-57
2023/12/11 05:42:18;;;;;;;36.53;6.07;;;10.00;99.90;;;;;;4981027;28;20129;-56
2023/12/11 05:44:44;;;;;;;31.05;6.07;;;10.00;99.90;;;;;;4999186;28;20052;-56
2023/12/11 05:47:10;;;;;;;28.63;5.88;;;10.00;99.90;;;;;;4984217;28;20038;-53
2023/12/11 05:49:38;;;;;;;40.28;7.20;;;10.00;99.90;;;;;;4985602;28;20034;-53
2023/12/11 05:52:04;;;;;;;33.28;6.32;;;10.00;99.90;;;;;;5003656;28;20036;-55
2023/12/11 05:54:30;;;;;;;39.80;5.82;;;10.00;99.90;;;;;;5002237;28;20038;-53
2023/12/11 05:56:55;;;;;;;34.75;6.72;;;10.00;99.90;;;;;;4981000;28;20046;-57
2023/12/11 05:59:21;;;;;;;29.00;5.32;;;10.00;99.90;;;;;;4978822;28;20477;-57
2023/12/11 06:01:48;;;;;;;35.88;6.53;;;9.90;99.90;;;;;;5000735;28;20640;-57
2023/12/11 06:04:13;;;;;;;32.63;6.57;;;9.90;99.90;;;;;;4984114;28;20054;-55
2023/12/11 06:06:39;;;;;;;33.95;5.40;;;9.90;99.90;;;;;;5000754;28;20046;-56
2023/12/11 06:09:05;;;;;;;27.70;4.90;;;9.90;99.90;;;;;;5002480;28;20042;-57
2023/12/11 06:11:31;;;;;;;32.95;5.72;;;9.90;99.90;;;;;;5003892;28;20038;-56
2023/12/11 06:13:59;;;;;;;31.77;7.90;;;9.90;99.90;;;;;;5002150;28;20038;-56
2023/12/11 06:16:25;;;;;;;32.15;5.65;;;9.90;99.90;;;;;;5002120;28;20030;-57
2023/12/11 06:18:50;;;;;;;29.15;5.47;;;9.90;99.90;;;;;;4997447;28;20053;-56
2023/12/11 06:21:23;;;;;;;34.60;5.80;;;9.90;99.90;;;;;;5000003;28;20052;-58
2023/12/11 06:23:49;;;;;;;31.92;6.63;;;10.00;99.90;;;;;;5003102;28;20042;-57
2023/12/11 06:26:32;;;;;;;42.55;6.55;;;9.90;99.90;;;;;;5002301;28;20045;-57
2023/12/11 06:29:01;;;;;;;41.00;7.03;;;9.90;99.90;;;;;;4982506;28;20124;-57
2023/12/11 06:31:29;;;;;;;38.50;6.22;;;9.90;99.90;;;;;;4996512;28;20099;-56
2023/12/11 06:33:55;;;;;;;34.33;6.20;;;9.90;99.90;;;;;;4997488;28;20041;-57
2023/12/11 06:36:21;;;;;;;36.03;5.97;;;9.90;99.90;;;;;;4998195;28;20050;-57
2023/12/11 06:38:52;;;;;;;41.75;6.38;;;9.90;99.90;;;;;;4998322;28;20579;-57
2023/12/11 06:41:18;;;;;;;31.70;5.95;;;9.90;99.90;;;;;;4996479;28;20061;-57
2023/12/11 06:43:49;;;;;;;37.70;5.63;;;9.90;99.90;;;;;;4998958;28;20103;-57
2023/12/11 06:46:15;;;;;;;30.73;6.57;;;9.90;99.90;;;;;;5000738;28;20042;-56
2023/12/11 06:48:41;;;;;;;34.95;6.15;;;9.90;99.90;;;;;;4999675;28;20437;-57
2023/12/11 06:51:06;;;;;;;32.70;5.93;;;9.90;99.90;;;;;;4984506;28;20082;-58
2023/12/11 06:53:32;;;;;;;32.33;5.47;;;9.90;99.90;;;;;;4984246;28;20077;-58
2023/12/11 06:55:58;;;;;;;30.52;5.50;;;9.90;99.90;;;;;;5001527;28;20515;-57
2023/12/11 06:58:23;;;;;;;30.50;5.15;;;9.90;99.90;;;;;;4998648;28;20046;-58
2023/12/11 07:00:50;;;;;;;27.67;4.78;;;9.90;99.90;;;;;;4998256;28;20096;-57
2023/12/11 07:03:17;;;;;;;32.25;5.07;;;9.80;99.90;;;;;;5000296;28;20045;-57
2023/12/11 07:05:43;;;;;;;28.80;5.43;;;9.90;99.90;;;;;;4985830;28;20053;-57
2023/12/11 07:08:09;;;;;;;29.98;4.72;;;9.90;99.90;;;;;;4985172;28;20073;-57
2023/12/11 07:10:35;;;;;;;38.03;5.63;;;9.80;99.90;;;;;;5013121;28;20058;-58
2023/12/11 07:13:02;;;;;;;32.00;5.32;;;9.90;99.90;;;;;;4994951;28;20050;-58
2023/12/11 07:15:31;;;;;;;23.33;4.90;;;9.90;99.90;;;;;;4966509;28;20030;-57
2023/12/11 07:17:57;;;;;;;27.98;4.60;;;9.80;99.90;;;;;;5003250;28;20037;-57
2023/12/11 07:20:23;;;;;;;28.10;5.30;;;9.80;99.90;;;;;;4987684;28;20048;-58
2023/12/11 07:22:52;;;;;;;30.60;5.00;;;9.80;99.90;;;;;;4983654;28;20048;-56
2023/12/11 07:25:18;;;;;;;29.27;5.07;;;9.80;99.90;;;;;;5002930;28;20038;-57
2023/12/11 07:27:43;;;;;;;31.50;5.57;;;9.90;99.90;;;;;;4985471;28;20073;-57
2023/12/11 07:30:11;;;;;;;26.48;6.30;;;9.80;99.90;;;;;;5005218;28;20088;-57
2023/12/11 07:32:37;;;;;;;28.95;4.53;;;9.80;99.90;;;;;;5004281;28;20142;-57
2023/12/11 07:35:03;;;;;;;30.38;4.60;;;9.80;99.90;;;;;;4985196;28;20129;-58
2023/12/11 07:37:29;;;;;;;24.13;4.32;;;9.70;99.90;;;;;;4983866;28;20505;-58
2023/12/11 07:39:55;;;;;;;25.30;4.90;;;9.70;99.90;;;;;;4987221;28;20100;-58
2023/12/11 07:42:22;;;;;;;30.38;4.55;;;9.70;99.90;;;;;;4980671;28;20054;-58
2023/12/11 07:44:50;;;;;;;18.52;4.00;;;9.70;99.90;;;;;;4988729;28;20416;-58
2023/12/11 07:47:16;;;;;;;26.30;4.55;;;9.70;99.90;;;;;;4984822;28;20038;-58
2023/12/11 07:49:42;;;;;;;24.02;4.78;;;9.70;99.90;;;;;;4991558;28;20042;-54
2023/12/11 07:52:08;;;;;;;23.08;5.05;;;9.70;99.90;;;;;;5004351;28;20093;-56
2023/12/11 07:54:33;;;;;;;21.35;4.50;;;9.70;99.90;;;;;;4986336;28;20041;-58
2023/12/11 07:57:02;;;;;;;27.73;4.28;;;9.70;99.90;;;;;;4981414;28;20038;-58
2023/12/11 07:59:28;;;;;;;22.27;4.90;;;9.70;99.90;;;;;;5005746;28;20092;-58
2023/12/11 08:02:20;;;;;;;26.40;4.68;;;9.60;99.90;;;;;;5005085;28;20681;-58
2023/12/11 08:04:46;;;;;;;24.92;5.78;;;9.70;99.90;;;;;;5005687;28;20139;-58
2023/12/11 08:07:16;;;;;;;28.85;5.25;;;9.60;99.90;;;;;;5004978;28;20638;-58
2023/12/11 08:09:42;;;;;;;31.00;4.90;;;9.70;99.90;;;;;;5004637;28;20041;-57
2023/12/11 08:12:08;;;;;;;25.27;5.35;;;9.60;99.90;;;;;;4987012;28;20172;-57
2023/12/11 08:14:37;;;;;;;27.92;6.35;;;9.60;99.90;;;;;;5005853;28;20038;-58
2023/12/11 08:17:06;;;;;;;27.20;5.57;;;9.60;99.90;;;;;;4982044;28;20038;-58
2023/12/11 08:19:35;;;;;;;29.60;5.18;;;9.60;99.90;;;;;;4985643;28;20416;-58
2023/12/11 08:22:01;;;;;;;37.55;6.25;;;9.60;99.90;;;;;;5008827;23;20064;-64
2023/12/11 08:24:27;;;;;;;29.05;5.75;;;9.60;99.90;;;;;;5045517;28;20896;-63
2023/12/11 08:26:55;;;;;;;26.98;6.00;;;9.60;99.90;;;;;;5025255;28;20728;-63
2023/12/11 08:29:22;;;;;;;25.60;6.40;;;9.60;99.90;;;;;;5043175;28;20041;-64
2023/12/11 08:31:49;;;;;;;27.60;6.97;;;9.60;99.90;;;;;;5024448;28;21411;-63
2023/12/11 08:34:15;;;;;;;25.52;5.70;;;9.60;99.90;;;;;;5020596;28;20045;-64
2023/12/11 08:36:41;;;;;;;28.23;5.53;;;9.60;99.90;;;;;;5022137;28;20046;-62
2023/12/11 08:39:06;;;;;;;24.63;5.30;;;9.60;99.90;;;;;;5009811;28;21095;-63
2023/12/11 08:41:33;;;;;;;30.70;4.80;;;9.70;99.90;;;;;;5021309;28;20428;-63
2023/12/11 08:43:59;;;;;;;26.83;5.35;;;9.70;99.90;;;;;;5023303;28;20050;-63
2023/12/11 08:46:25;;;;;;;26.45;4.88;;;9.70;99.90;;;;;;5010299;28;20083;-64
2023/12/11 08:48:51;;;;;;;26.27;4.65;;;9.70;99.90;;;;;;5028511;28;20447;-63
2023/12/11 08:51:18;;;;;;;28.98;5.13;;;9.80;99.90;;;;;;5019512;28;20037;-62
2023/12/11 08:53:44;;;;;;;29.88;4.85;;;9.80;99.90;;;;;;5010535;28;20455;-62
2023/12/11 08:56:10;;;;;;;28.50;4.65;;;9.80;99.90;;;;;;5030638;28;20132;-63
2023/12/11 08:58:36;;;;;;;29.85;5.30;;;9.80;99.90;;;;;;5009553;28;20053;-63
2023/12/11 09:01:03;;;;;;;29.17;5.47;;;9.80;99.90;;;;;;5026418;28;20645;-64
2023/12/11 09:03:29;;;;;;;24.17;4.40;;;9.90;99.90;;;;;;5010226;28;20496;-63
2023/12/11 09:05:55;;;;;;;25.85;5.15;;;9.90;99.90;;;;;;5021826;28;20570;-63
2023/12/11 09:08:21;;;;;;;26.75;4.68;;;9.90;99.90;;;;;;5025395;28;20041;-64
2023/12/11 09:10:46;;;;;;;24.42;4.00;;;9.90;99.90;;;;;;5025872;28;20048;-63
2023/12/11 09:13:12;;;;;;;30.75;4.40;;;10.00;99.90;;;;;;5008663;28;20037;-63
2023/12/11 09:15:38;;;;;;;23.40;4.13;;;10.00;99.90;;;;;;5008152;28;20045;-64
2023/12/11 09:18:06;;;;;;;27.10;5.13;;;10.00;99.90;;;;;;5008633;28;20168;-63
2023/12/11 09:20:32;;;;;;;22.40;3.88;;;10.10;99.90;;;;;;5005433;28;20048;-64
2023/12/11 09:22:57;;;;;;;22.80;4.45;;;10.10;99.90;;;;;;5023759;28;20037;-64
2023/12/11 09:25:23;;;;;;;21.00;3.67;;;10.10;99.90;;;;;;5025864;28;20037;-64
2023/12/11 09:27:49;;;;;;;20.17;3.92;;;10.10;99.90;;;;;;5026408;28;20057;-64
2023/12/11 09:30:15;;;;;;;19.65;4.03;;;10.10;99.90;;;;;;5026312;28;20067;-64
2023/12/11 09:33:05;;;;;;;19.23;3.35;;;10.00;99.90;;;;;;5026526;28;20470;-64
2023/12/11 09:35:31;;;;;;;35.28;4.28;;;10.00;99.90;;;;;;5019960;28;20426;-64
2023/12/11 09:37:57;;;;;;;34.05;5.93;;;10.00;99.90;;;;;;5007902;28;20179;-64
2023/12/11 09:40:23;;;;;;;27.23;4.68;;;10.00;99.90;;;;;;5024909;28;20037;-64
2023/12/11 09:42:51;;;;;;;30.45;4.15;;;10.00;99.90;;;;;;5022389;28;20735;-64
2023/12/11 09:45:19;;;;;;;30.73;4.03;;;10.10;99.90;;;;;;5013083;28;20041;-63
2023/12/11 09:47:52;;;;;;;22.40;4.10;;;10.10;99.90;;;;;;5021862;28;20080;-63
2023/12/11 09:50:19;;;;;;;29.10;4.40;;;10.10;99.90;;;;;;5019036;28;20435;-63
2023/12/11 09:52:45;;;;;;;26.33;4.55;;;10.10;99.90;;;;;;5022396;28;20049;-64
2023/12/11 09:55:11;;;;;;;30.58;4.95;;;10.10;99.90;;;;;;5019829;28;20124;-63
2023/12/11 09:57:40;;;;;;;38.60;5.80;;;10.10;99.90;;;;;;5024464;28;20041;-63
2023/12/11 10:00:07;;;;;;;28.13;4.65;;;10.10;99.90;;;;;;5000413;28;20157;-63
2023/12/11 10:02:33;;;;;;;27.75;4.50;;;10.20;99.90;;;;;;5004991;28;20603;-63
2023/12/11 10:05:09;;;;;;;35.10;4.90;;;10.20;99.90;;;;;;5006838;28;20041;-63
2023/12/11 10:07:36;;;;;;;27.63;4.57;;;10.30;99.90;;;;;;5022570;28;20451;-63
2023/12/11 10:10:22;;;;;;;23.15;4.47;;;10.30;99.90;;;;;;5024884;28;20810;-63
2023/12/11 10:12:48;;;;;;;26.38;4.72;;;10.30;99.90;;;;;;5022007;28;20077;-63
2023/12/11 10:15:23;;;;;;;23.90;4.30;;;10.30;99.90;;;;;;5018724;28;20037;-63
2023/12/11 10:18:09;;;;;;;28.98;5.45;;;10.30;99.90;;;;;;5011492;28;20132;-64
2023/12/11 10:20:40;;;;;;;29.80;5.22;;;10.30;99.90;;;;;;5010825;28;20705;-64
2023/12/11 10:23:21;;;;;;;29.88;4.60;;;10.40;99.90;;;;;;5011030;28;20045;-64
2023/12/11 10:25:52;;;;;;;25.27;4.68;;;10.40;99.90;;;;;;5001878;28;20100;-65
2023/12/11 10:28:23;;;;;;;21.77;4.15;;;10.40;99.90;;;;;;5019186;28;20049;-64
2023/12/11 10:30:51;;;;;;;22.85;3.42;;;10.40;99.90;;;;;;5018627;28;20049;-64
2023/12/11 10:33:18;;;;;;;20.80;3.90;;;10.30;99.90;;;;;;5016211;28;20466;-64
2023/12/11 10:35:45;;;;;;;18.30;3.55;;;10.40;99.90;;;;;;5020502;28;20124;-64
2023/12/11 10:38:19;;;;;;;18.27;3.22;;;10.30;99.90;;;;;;5023363;28;20056;-64
2023/12/11 10:40:45;;;;;;;20.95;4.25;;;10.40;99.90;;;;;;5018443;28;20056;-63
2023/12/11 10:43:11;;;;;;;13.63;3.05;;;10.40;99.90;;;;;;5020584;28;20045;-64
2023/12/11 10:45:37;;;;;;;18.23;4.05;;;10.40;99.90;;;;;;5017626;28;20565;-64
2023/12/11 10:48:05;;;;;;;20.63;3.38;;;10.40;99.90;;;;;;5001039;28;20049;-65
2023/12/11 11:01:31;;;;;;;14.65;2.90;;;10.30;99.90;;;;;;5316202;22;20054;-63
2023/12/11 11:03:57;;;;;;;15.68;2.60;;;10.30;99.90;;;;;;4985184;28;20570;-63
2023/12/11 11:06:26;;;;;;;10.80;2.00;;;10.30;99.90;;;;;;4985491;28;20042;-64
2023/12/11 11:09:00;;;;;;;7.85;1.55;;;10.30;99.90;;;;;;4986260;28;20062;-63
2023/12/11 11:11:31;;;;;;;11.10;1.90;;;10.20;99.90;;;;;;4981161;28;20045;-63
2023/12/11 11:14:15;;;;;;;8.07;1.20;;;10.20;99.90;;;;;;4984379;28;20058;-64
2023/12/11 11:16:51;;;;;;;9.40;1.95;;;10.20;99.90;;;;;;4968971;28;20050;-63
2023/12/11 11:19:17;;;;;;;7.43;1.98;;;10.20;99.90;;;;;;4978409;28;20043;-63
2023/12/11 11:22:18;;;;;;;10.02;1.83;;;10.30;99.90;;;;;;4981105;28;20561;-62
2023/12/11 11:24:44;;;;;;;15.35;2.92;;;10.30;99.90;;;;;;4984174;28;20069;-64
2023/12/11 11:27:40;;;;;;;16.40;2.47;;;10.30;99.90;;;;;;4985078;28;20874;-64
2023/12/11 11:30:07;;;;;;;18.42;3.58;;;10.40;99.90;;;;;;4996046;28;20464;-62
2023/12/11 11:32:56;;;;;;;27.33;4.35;;;10.30;99.90;;;;;;4987931;28;20038;-64
2023/12/11 11:35:43;;;;;;;29.90;4.55;;;10.30;99.90;;;;;;4986400;28;20046;-63
2023/12/11 11:38:12;;;;;;;26.95;4.93;;;10.30;99.90;;;;;;4981990;28;20576;-63
2023/12/11 11:40:38;;;;;;;21.90;4.25;;;10.30;99.90;;;;;;4965238;28;20773;-62
2023/12/11 11:43:08;;;;;;;20.58;4.50;;;10.20;99.90;;;;;;4970654;28;20053;-62
2023/12/11 11:45:33;;;;;;;23.63;3.70;;;10.10;99.90;;;;;;4964646;28;20645;-62
2023/12/11 11:48:00;;;;;;;19.63;4.93;;;10.00;99.90;;;;;;4981847;28;20070;-63
2023/12/11 11:50:25;;;;;;;22.73;4.53;;;10.10;99.90;;;;;;4977181;28;20042;-63
2023/12/11 11:53:01;;;;;;;19.50;3.33;;;10.00;99.90;;;;;;4966869;28;20041;-63
2023/12/11 11:55:30;;;;;;;21.95;5.07;;;10.00;99.90;;;;;;4980926;28;20050;-62
2023/12/11 11:57:57;;;;;;;24.15;3.97;;;9.90;99.90;;;;;;4969294;28;20050;-62
2023/12/11 12:00:31;;;;;;;19.42;3.30;;;9.90;99.90;;;;;;4974556;28;20043;-63
2023/12/11 12:02:57;;;;;;;20.08;4.13;;;9.90;99.90;;;;;;4974742;28;20082;-62
2023/12/11 12:05:23;;;;;;;21.10;3.97;;;9.90;99.90;;;;;;4984744;28;20050;-62
2023/12/11 12:07:49;;;;;;;22.13;3.42;;;10.00;99.90;;;;;;4982781;28;20069;-62
2023/12/11 12:10:17;;;;;;;15.48;2.53;;;10.10;99.90;;;;;;4965991;28;20069;-62
2023/12/11 12:12:43;;;;;;;13.70;2.28;;;10.10;99.90;;;;;;4978964;28;20050;-61
2023/12/11 12:15:10;;;;;;;15.48;2.47;;;10.10;99.90;;;;;;4983239;28;20027;-62
2023/12/11 12:17:38;;;;;;;10.55;2.00;;;10.10;99.90;;;;;;4977182;28;20495;-62
2023/12/11 12:20:18;;;;;;;12.80;2.45;;;10.00;99.90;;;;;;4964713;28;20545;-64
2023/12/11 12:23:04;;;;;;;14.10;2.15;;;9.80;99.90;;;;;;4985830;28;20030;-62
2023/12/11 12:25:31;;;;;;;12.27;2.88;;;9.80;99.90;;;;;;4970473;28;20676;-62
2023/12/11 12:28:17;;;;;;;11.35;1.80;;;9.70;99.90;;;;;;4986490;28;20050;-64
2023/12/11 12:30:43;;;;;;;15.27;2.20;;;9.60;99.90;;;;;;4983711;28;20054;-63
2023/12/11 12:33:11;;;;;;;13.10;2.17;;;9.50;99.90;;;;;;4986687;28;20042;-62
2023/12/11 12:35:38;;;;;;;11.60;2.05;;;9.60;99.90;;;;;;4976283;28;20085;-63
2023/12/11 12:38:07;;;;;;;8.85;1.40;;;9.60;99.90;;;;;;4977594;28;20069;-62
2023/12/11 12:40:34;;;;;;;15.10;2.42;;;9.60;99.90;;;;;;4973264;28;20233;-62
2023/12/11 12:43:13;;;;;;;12.13;1.67;;;9.50;99.90;;;;;;4983767;28;20057;-63
2023/12/11 12:45:41;;;;;;;13.35;1.80;;;9.60;99.90;;;;;;4986944;28;20045;-62
2023/12/11 12:48:09;;;;;;;12.35;1.65;;;9.50;99.90;;;;;;4981293;28;20061;-62
2023/12/11 12:50:36;;;;;;;10.77;2.00;;;9.60;99.90;;;;;;4985235;28;20043;-61
2023/12/11 12:53:10;;;;;;;13.57;2.97;;;9.50;99.90;;;;;;4971263;28;20041;-62
2023/12/11 12:55:37;;;;;;;14.93;2.00;;;9.50;99.90;;;;;;4986670;28;20038;-62